createdAt,value
2018-07-01T00:00:48.269Z,14.60
2018-07-01T00:03:51.484Z,14.61
2018-07-01T00:06:55.613Z,14.42
2018-07-01T00:09:58.718Z,14.14
2018-07-01T00:13:01.782Z,14.14
2018-07-01T00:16:04.922Z,14.19
2018-07-01T00:19:07.980Z,14.06
2018-07-01T00:22:11.042Z,13.78
2018-07-01T00:25:15.058Z,13.57
2018-07-01T00:28:18.118Z,13.44
2018-07-01T00:31:22.163Z,13.63
2018-07-01T00:34:26.160Z,13.45
2018-07-01T00:37:29.157Z,12.93
2018-07-01T00:40:32.184Z,12.55
2018-07-01T00:43:36.224Z,12.25
2018-07-01T00:46:39.933Z,12.07
2018-07-01T00:49:42.908Z,11.99
2018-07-01T00:52:46.008Z,11.95
2018-07-01T00:55:49.583Z,11.97
2018-07-01T00:58:52.581Z,11.89
2018-07-01T01:01:56.627Z,11.78
2018-07-01T01:04:59.584Z,11.60
2018-07-01T01:08:02.525Z,11.49
2018-07-01T01:11:05.974Z,11.45
2018-07-01T01:14:10.040Z,11.40
2018-07-01T01:17:13.103Z,11.31
2018-07-01T01:20:17.095Z,11.13
2018-07-01T01:23:20.051Z,10.97
2018-07-01T01:26:23.427Z,10.87
2018-07-01T01:29:27.652Z,10.94
2018-07-01T01:32:30.759Z,11.01
2018-07-01T01:35:33.944Z,11.01
2018-07-01T01:38:39.016Z,11.10
2018-07-01T01:43:50.091Z,11.18
2018-07-01T01:46:58.941Z,11.53
2018-07-01T01:52:09.775Z,11.38
2018-07-01T01:55:24.921Z,11.12
2018-07-01T01:58:33.943Z,10.99
2018-07-01T02:01:41.657Z,10.81
2018-07-01T02:04:53.836Z,10.54
2018-07-01T02:08:00.158Z,10.42
2018-07-01T02:11:03.533Z,10.43
2018-07-01T02:14:10.364Z,10.48
2018-07-01T02:17:21.932Z,10.86
2018-07-01T02:20:29.002Z,11.32
2018-07-01T02:23:49.657Z,11.99
2018-07-01T02:26:52.933Z,12.33
2018-07-01T02:29:57.028Z,12.30
2018-07-01T02:33:00.233Z,12.44
2018-07-01T02:36:03.242Z,12.40
2018-07-01T02:39:07.558Z,12.43
2018-07-01T02:42:11.524Z,12.50
2018-07-01T02:45:15.511Z,12.41
2018-07-01T02:48:18.506Z,12.26
2018-07-01T02:51:21.516Z,12.24
2018-07-01T02:54:24.603Z,12.16
2018-07-01T02:57:27.603Z,11.90
2018-07-01T03:00:30.615Z,11.29
2018-07-01T03:03:33.639Z,10.76
2018-07-01T03:06:37.651Z,10.38
2018-07-01T03:09:40.655Z,10.18
2018-07-01T03:12:43.660Z,9.99
2018-07-01T03:15:46.751Z,9.95
2018-07-01T03:18:49.746Z,9.99
2018-07-01T03:21:52.821Z,10.04
2018-07-01T03:24:56.899Z,9.99
2018-07-01T03:27:59.918Z,9.57
2018-07-01T03:31:03.940Z,9.55
2018-07-01T03:34:07.083Z,9.55
2018-07-01T03:37:10.057Z,9.66
2018-07-01T03:40:13.045Z,9.80
2018-07-01T03:43:17.037Z,9.93
2018-07-01T03:46:20.158Z,10.02
2018-07-01T03:49:23.124Z,9.86
2018-07-01T03:52:27.085Z,9.69
2018-07-01T03:55:30.105Z,9.50
2018-07-01T03:58:33.063Z,9.49
2018-07-01T04:01:36.176Z,9.73
2018-07-01T04:04:39.440Z,11.92
2018-07-01T04:07:43.533Z,15.48
2018-07-01T04:10:46.600Z,17.70
2018-07-01T04:13:49.709Z,18.67
2018-07-01T04:16:52.752Z,19.68
2018-07-01T04:19:55.839Z,20.08
2018-07-01T04:22:58.833Z,20.95
2018-07-01T04:26:01.854Z,21.66
2018-07-01T04:29:04.990Z,22.50
2018-07-01T04:32:08.984Z,23.12
2018-07-01T04:35:12.037Z,22.33
2018-07-01T04:38:15.093Z,21.42
2018-07-01T04:41:18.119Z,22.56
2018-07-01T04:44:21.238Z,23.83
2018-07-01T04:47:24.261Z,24.58
2018-07-01T04:50:27.209Z,25.78
2018-07-01T04:53:30.299Z,25.84
2018-07-01T04:56:34.258Z,25.94
2018-07-01T04:59:37.201Z,26.33
2018-07-01T05:02:40.278Z,26.57
2018-07-01T05:05:43.406Z,25.77
2018-07-01T05:08:46.338Z,24.91
2018-07-01T05:11:50.335Z,26.01
2018-07-01T05:14:53.325Z,26.88
2018-07-01T05:17:56.501Z,26.73
2018-07-01T05:20:59.470Z,25.51
2018-07-01T05:24:02.427Z,26.86
2018-07-01T05:27:05.699Z,26.25
2018-07-01T05:30:08.605Z,27.13
2018-07-01T05:33:11.670Z,27.17
2018-07-01T05:36:14.665Z,27.48
2018-07-01T05:39:17.802Z,28.64
2018-07-01T05:42:21.477Z,29.38
2018-07-01T05:45:24.564Z,29.25
2018-07-01T05:48:27.611Z,30.11
2018-07-01T05:51:30.982Z,28.95
2018-07-01T05:54:35.103Z,29.08
2018-07-01T05:57:38.207Z,28.51
2018-07-01T06:00:41.255Z,27.51
2018-07-01T06:03:44.346Z,28.23
2018-07-01T06:06:47.418Z,29.80
2018-07-01T06:09:50.409Z,29.99
2018-07-01T06:12:54.627Z,29.16
2018-07-01T06:15:57.719Z,30.02
2018-07-01T06:19:00.933Z,29.42
2018-07-01T06:22:03.919Z,28.55
2018-07-01T06:25:07.101Z,27.80
2018-07-01T06:28:10.380Z,27.30
2018-07-01T06:31:13.402Z,27.29
2018-07-01T06:34:16.383Z,27.13
2018-07-01T06:37:19.502Z,27.33
2018-07-01T06:40:23.749Z,26.97
2018-07-01T06:43:26.774Z,27.38
2018-07-01T06:46:29.739Z,26.91
2018-07-01T06:49:32.824Z,27.57
2018-07-01T06:52:35.755Z,27.64
2018-07-01T06:55:38.916Z,27.20
2018-07-01T06:58:41.906Z,26.93
2018-07-01T07:01:44.901Z,28.20
2018-07-01T07:04:48.898Z,28.15
2018-07-01T07:07:51.901Z,28.27
2018-07-01T07:10:55.874Z,28.02
2018-07-01T07:13:58.858Z,27.05
2018-07-01T07:17:01.985Z,27.85
2018-07-01T07:20:05.021Z,27.44
2018-07-01T07:23:08.112Z,27.62
2018-07-01T07:26:11.211Z,27.64
2018-07-01T07:29:14.153Z,27.85
2018-07-01T07:32:17.121Z,28.34
2018-07-01T07:35:21.146Z,27.47
2018-07-01T07:38:25.199Z,26.60
2018-07-01T07:41:28.242Z,25.79
2018-07-01T07:44:31.267Z,26.73
2018-07-01T07:47:34.246Z,26.89
2018-07-01T07:50:37.256Z,25.99
2018-07-01T07:53:40.315Z,26.39
2018-07-01T07:56:44.371Z,26.14
2018-07-01T07:59:47.417Z,26.26
2018-07-01T08:02:50.441Z,25.84
2018-07-01T08:05:53.507Z,25.20
2018-07-01T08:08:57.506Z,25.85
2018-07-01T08:12:00.514Z,25.05
2018-07-01T08:15:03.546Z,25.35
2018-07-01T08:18:07.599Z,24.80
2018-07-01T08:21:10.617Z,23.86
2018-07-01T08:24:13.649Z,23.44
2018-07-01T08:27:16.684Z,23.48
2018-07-01T08:30:19.666Z,23.42
2018-07-01T08:33:23.711Z,23.24
2018-07-01T08:36:26.847Z,23.30
2018-07-01T08:39:31.026Z,23.31
2018-07-01T08:42:36.388Z,23.52
2018-07-01T08:45:39.339Z,23.83
2018-07-01T08:48:43.363Z,23.95
2018-07-01T08:51:46.437Z,23.89
2018-07-01T08:54:50.461Z,24.01
2018-07-01T08:57:55.556Z,23.90
2018-07-01T09:00:58.563Z,23.92
2018-07-01T09:04:01.566Z,23.84
2018-07-01T09:07:04.612Z,23.85
2018-07-01T09:10:07.926Z,24.16
2018-07-01T09:13:11.006Z,24.32
2018-07-01T09:16:14.930Z,24.35
2018-07-01T09:19:18.970Z,24.18
2018-07-01T09:22:21.945Z,24.15
2018-07-01T09:25:24.914Z,24.36
2018-07-01T09:28:29.069Z,24.40
2018-07-01T09:31:32.195Z,24.33
2018-07-01T09:34:36.306Z,24.39
2018-07-01T09:37:39.230Z,24.72
2018-07-01T09:40:43.263Z,24.63
2018-07-01T09:43:47.317Z,24.97
2018-07-01T09:46:50.388Z,25.13
2018-07-01T09:49:53.505Z,25.01
2018-07-01T09:52:58.466Z,24.80
2018-07-01T09:56:01.473Z,24.84
2018-07-01T09:59:05.594Z,24.75
2018-07-01T10:02:09.654Z,24.84
2018-07-01T10:05:13.754Z,24.42
2018-07-01T10:08:16.797Z,24.45
2018-07-01T10:11:19.814Z,24.97
2018-07-01T10:14:22.738Z,24.98
2018-07-01T10:17:25.692Z,25.26
2018-07-01T10:20:28.925Z,25.60
2018-07-01T10:23:33.037Z,25.76
2018-07-01T10:26:35.995Z,25.77
2018-07-01T10:29:39.073Z,25.36
2018-07-01T10:32:43.081Z,25.45
2018-07-01T10:35:48.372Z,25.52
2018-07-01T10:38:51.503Z,25.53
2018-07-01T10:41:55.556Z,25.60
2018-07-01T10:45:01.485Z,25.81
2018-07-01T10:48:04.579Z,25.87
2018-07-01T10:51:07.639Z,26.13
2018-07-01T10:54:11.702Z,25.84
2018-07-01T10:57:14.722Z,26.04
2018-07-01T11:00:17.699Z,25.84
2018-07-01T11:03:21.799Z,25.70
2018-07-01T11:06:25.808Z,25.87
2018-07-01T11:09:28.808Z,25.89
2018-07-01T11:12:33.026Z,25.49
2018-07-01T11:15:36.233Z,25.38
2018-07-01T11:18:40.223Z,25.64
2018-07-01T11:21:43.321Z,25.58
2018-07-01T11:24:47.345Z,25.82
2018-07-01T11:27:51.375Z,25.99
2018-07-01T11:30:54.611Z,25.67
2018-07-01T11:33:57.691Z,26.07
2018-07-01T11:37:00.715Z,26.50
2018-07-01T11:40:04.330Z,26.41
2018-07-01T11:43:07.574Z,26.60
2018-07-01T11:46:11.679Z,26.93
2018-07-01T11:49:16.991Z,26.92
2018-07-01T11:52:20.082Z,27.48
2018-07-01T11:55:24.093Z,27.05
2018-07-01T11:58:27.193Z,27.26
2018-07-01T12:01:31.186Z,26.52
2018-07-01T12:04:34.237Z,26.47
2018-07-01T12:07:37.400Z,26.72
2018-07-01T12:10:40.395Z,26.87
2018-07-01T12:13:43.478Z,26.73
2018-07-01T12:16:46.492Z,26.85
2018-07-01T12:19:50.634Z,27.05
2018-07-01T12:22:53.926Z,27.01
2018-07-01T12:25:56.920Z,27.14
2018-07-01T12:28:59.983Z,27.36
2018-07-01T12:32:04.045Z,26.58
2018-07-01T12:35:07.708Z,26.70
2018-07-01T12:38:10.830Z,27.19
2018-07-01T12:41:13.947Z,27.47
2018-07-01T12:44:17.026Z,27.78
2018-07-01T12:47:22.064Z,27.68
2018-07-01T12:50:25.206Z,27.36
2018-07-01T12:53:28.258Z,27.60
2018-07-01T12:56:31.367Z,27.77
2018-07-01T12:59:34.471Z,27.98
2018-07-01T13:02:38.554Z,27.94
2018-07-01T13:05:41.771Z,28.10
2018-07-01T13:08:45.873Z,27.87
2018-07-01T13:11:49.057Z,27.77
2018-07-01T13:14:53.145Z,27.71
2018-07-01T13:17:56.206Z,27.66
2018-07-01T13:20:59.265Z,27.58
2018-07-01T13:24:02.375Z,27.88
2018-07-01T13:27:05.496Z,28.19
2018-07-01T13:30:09.622Z,28.57
2018-07-01T13:33:12.682Z,28.52
2018-07-01T13:36:18.010Z,28.20
2018-07-01T13:39:21.039Z,28.22
2018-07-01T13:42:24.104Z,28.29
2018-07-01T13:45:27.116Z,28.03
2018-07-01T13:48:30.741Z,28.31
2018-07-01T13:51:33.852Z,28.58
2018-07-01T13:54:37.892Z,29.11
2018-07-01T13:57:41.025Z,29.05
2018-07-01T14:00:44.287Z,28.76
2018-07-01T14:03:47.234Z,28.92
2018-07-01T14:06:50.344Z,29.27
2018-07-01T14:09:54.358Z,29.37
2018-07-01T14:12:57.474Z,29.70
2018-07-01T14:16:01.562Z,30.01
2018-07-01T14:19:04.700Z,30.27
2018-07-01T14:22:07.779Z,29.80
2018-07-01T14:25:10.799Z,29.80
2018-07-01T14:28:13.808Z,29.93
2018-07-01T14:31:16.919Z,30.69
2018-07-01T14:34:19.924Z,30.42
2018-07-01T14:37:22.963Z,30.43
2018-07-01T14:40:27.033Z,30.64
2018-07-01T14:43:31.112Z,30.62
2018-07-01T14:46:34.016Z,30.48
2018-07-01T14:49:36.979Z,30.56
2018-07-01T14:52:40.958Z,30.83
2018-07-01T14:55:44.974Z,30.26
2018-07-01T14:58:48.065Z,30.10
2018-07-01T15:01:51.064Z,29.15
2018-07-01T15:04:54.114Z,29.66
2018-07-01T15:07:57.059Z,29.99
2018-07-01T15:11:00.159Z,30.43
2018-07-01T15:14:03.712Z,30.50
2018-07-01T15:17:06.769Z,30.07
2018-07-01T15:20:09.745Z,30.11
2018-07-01T15:23:12.805Z,30.29
2018-07-01T15:26:16.908Z,30.08
2018-07-01T15:29:19.985Z,29.34
2018-07-01T15:32:22.904Z,29.27
2018-07-01T15:35:27.046Z,29.81
2018-07-01T15:38:29.979Z,29.99
2018-07-01T15:41:32.990Z,30.19
2018-07-01T15:44:36.008Z,30.18
2018-07-01T15:47:39.142Z,30.29
2018-07-01T15:50:42.218Z,30.38
2018-07-01T15:53:45.225Z,30.44
2018-07-01T15:56:48.291Z,30.17
2018-07-01T15:59:51.365Z,29.40
2018-07-01T16:02:54.518Z,29.18
2018-07-01T16:05:57.525Z,29.48
2018-07-01T16:09:00.573Z,30.12
2018-07-01T16:12:03.640Z,30.40
2018-07-01T16:15:06.681Z,30.05
2018-07-01T16:18:09.674Z,30.15
2018-07-01T16:21:12.702Z,30.46
2018-07-01T16:24:15.744Z,30.05
2018-07-01T16:27:23.230Z,29.63
2018-07-01T16:30:26.198Z,29.61
2018-07-01T16:33:29.227Z,30.09
2018-07-01T16:36:32.235Z,30.11
2018-07-01T16:39:35.366Z,30.57
2018-07-01T16:42:38.419Z,30.85
2018-07-01T16:45:41.477Z,30.74
2018-07-01T16:48:44.451Z,30.48
2018-07-01T16:51:47.515Z,29.69
2018-07-01T16:54:50.542Z,29.91
2018-07-01T16:57:53.506Z,30.19
2018-07-01T17:00:56.551Z,30.15
2018-07-01T17:03:59.589Z,30.72
2018-07-01T17:07:02.541Z,31.09
2018-07-01T17:10:05.648Z,31.57
2018-07-01T17:13:08.687Z,32.08
2018-07-01T17:16:12.742Z,31.71
2018-07-01T17:19:15.796Z,31.26
2018-07-01T17:22:18.752Z,31.48
2018-07-01T17:25:21.776Z,31.25
2018-07-01T17:28:25.538Z,31.83
2018-07-01T17:31:34.302Z,31.98
2018-07-01T17:34:37.310Z,31.24
2018-07-01T17:37:41.249Z,30.62
2018-07-01T17:40:44.305Z,30.24
2018-07-01T17:43:47.294Z,30.01
2018-07-01T17:46:50.252Z,29.85
2018-07-01T17:49:53.252Z,30.16
2018-07-01T17:52:56.268Z,29.78
2018-07-01T17:56:01.079Z,29.45
2018-07-01T17:59:04.094Z,29.08
2018-07-01T18:02:07.314Z,28.54
2018-07-01T18:05:10.386Z,28.32
2018-07-01T18:08:13.477Z,28.47
2018-07-01T18:11:16.537Z,28.39
2018-07-01T18:14:20.631Z,28.35
2018-07-01T18:17:25.547Z,28.18
2018-07-01T18:20:28.585Z,28.04
2018-07-01T18:24:02.953Z,27.89
2018-07-01T18:26:35.270Z,27.74
2018-07-01T18:29:39.258Z,27.43
2018-07-01T18:32:42.247Z,27.27
2018-07-01T18:35:45.223Z,27.16
2018-07-01T18:38:49.311Z,26.78
2018-07-01T18:41:52.439Z,26.49
2018-07-01T18:44:55.466Z,26.26
2018-07-01T18:47:58.401Z,26.02
2018-07-01T18:51:01.449Z,25.84
2018-07-01T18:54:04.437Z,25.76
2018-07-01T18:57:07.445Z,25.34
2018-07-01T19:00:10.594Z,24.95
2018-07-01T19:03:14.577Z,24.48
2018-07-01T19:06:17.530Z,23.93
2018-07-01T19:09:21.530Z,23.39
2018-07-01T19:12:24.490Z,22.99
2018-07-01T19:15:27.502Z,22.75
2018-07-01T19:18:31.701Z,22.44
2018-07-01T19:21:34.715Z,22.11
2018-07-01T19:24:37.670Z,21.87
2018-07-01T19:27:40.697Z,21.56
2018-07-01T19:30:44.669Z,21.30
2018-07-01T19:33:47.638Z,20.94
2018-07-01T19:36:50.664Z,20.48
2018-07-01T19:39:53.634Z,20.04
2018-07-01T19:42:56.643Z,19.77
2018-07-01T19:46:00.593Z,19.51
2018-07-01T19:49:03.641Z,19.33
2018-07-01T19:52:06.627Z,19.29
2018-07-01T19:55:09.596Z,19.16
2018-07-01T19:58:12.664Z,19.02
2018-07-01T20:01:16.742Z,18.82
2018-07-01T20:04:19.695Z,18.77
2018-07-01T20:07:22.824Z,18.67
2018-07-01T20:10:25.774Z,18.46
2018-07-01T20:13:28.795Z,18.36
2018-07-01T20:16:31.788Z,18.21
2018-07-01T20:19:34.749Z,18.00
2018-07-01T20:22:37.769Z,17.85
2018-07-01T20:25:40.723Z,17.80
2018-07-01T20:28:44.797Z,17.72
2018-07-01T20:31:48.834Z,17.54
2018-07-01T20:34:51.802Z,17.37
2018-07-01T20:37:54.729Z,17.11
2018-07-01T20:40:58.803Z,16.99
2018-07-01T20:44:02.799Z,16.89
2018-07-01T20:47:05.861Z,16.67
2018-07-01T20:50:08.852Z,16.60
2018-07-01T20:53:11.919Z,16.50
2018-07-01T20:56:14.968Z,16.44
2018-07-01T20:59:19.753Z,16.33
2018-07-01T21:02:22.786Z,16.27
2018-07-01T21:05:25.803Z,16.22
2018-07-01T21:08:29.694Z,16.13
2018-07-01T21:11:32.602Z,16.12
2018-07-01T21:14:35.648Z,16.19
2018-07-01T21:17:39.655Z,16.27
2018-07-01T21:20:43.661Z,16.24
2018-07-01T21:23:47.598Z,16.26
2018-07-01T21:26:50.991Z,16.37
2018-07-01T21:29:54.110Z,16.20
2018-07-01T21:32:57.121Z,16.10
2018-07-01T21:36:00.172Z,15.93
2018-07-01T21:39:05.214Z,15.89
2018-07-01T21:42:08.177Z,15.67
2018-07-01T21:45:11.304Z,15.46
2018-07-01T21:48:14.335Z,15.23
2018-07-01T21:51:17.379Z,15.11
2018-07-01T21:54:20.431Z,15.05
2018-07-01T21:57:23.431Z,15.22
2018-07-01T22:00:30.447Z,15.10
2018-07-01T22:03:33.435Z,14.88
2018-07-01T22:06:42.048Z,15.00
2018-07-01T22:09:45.133Z,14.95
2018-07-01T22:12:51.397Z,14.94
2018-07-01T22:16:04.926Z,14.89
2018-07-01T22:19:07.948Z,15.03
2018-07-01T22:22:11.042Z,15.15
2018-07-01T22:25:15.027Z,15.09
2018-07-01T22:28:17.940Z,14.93
2018-07-01T22:31:20.989Z,15.00
2018-07-01T22:34:24.173Z,15.28
2018-07-01T22:37:27.307Z,15.09
2018-07-01T22:40:30.289Z,14.72
2018-07-01T22:43:34.321Z,14.42
2018-07-01T22:46:38.462Z,14.14
2018-07-01T22:49:41.484Z,13.81
2018-07-01T22:52:44.545Z,13.52
2018-07-01T22:55:47.531Z,13.31
2018-07-01T22:58:50.550Z,13.12
2018-07-01T23:03:03.630Z,13.03
2018-07-01T23:06:06.662Z,12.88
2018-07-01T23:09:09.603Z,12.78
2018-07-01T23:12:13.664Z,12.62
2018-07-01T23:15:16.685Z,12.48
2018-07-01T23:18:19.750Z,12.43
2018-07-01T23:21:22.810Z,12.37
2018-07-01T23:24:25.777Z,12.32
2018-07-01T23:27:28.726Z,12.21
2018-07-01T23:30:31.687Z,12.06
2018-07-01T23:33:34.658Z,11.84
2018-07-01T23:36:37.666Z,11.58
2018-07-01T23:39:41.730Z,11.46
2018-07-01T23:42:44.851Z,11.38
2018-07-01T23:45:47.878Z,11.41
2018-07-01T23:48:50.996Z,11.45
2018-07-01T23:51:54.139Z,11.41
2018-07-01T23:54:57.175Z,11.23
2018-07-01T23:58:00.269Z,10.95
